createdAt,value
2019-02-14T00:02:14.744Z,-0.40
2019-02-14T00:04:45.751Z,0.70
2019-02-14T00:09:44.416Z,0.70
2019-02-14T00:12:22.192Z,0.80
2019-02-14T00:14:51.755Z,0.90
2019-02-14T00:19:51.376Z,0.80
2019-02-14T00:22:23.753Z,0.80
2019-02-14T00:24:53.557Z,0.90
2019-02-14T00:27:26.265Z,2.20
2019-02-14T00:29:56.124Z,0.90
2019-02-14T00:32:28.712Z,1.00
2019-02-14T00:34:58.281Z,1.00
2019-02-14T00:37:30.893Z,1.00
2019-02-14T00:40:00.498Z,1.10
2019-02-14T00:42:33.265Z,1.00
2019-02-14T00:45:02.832Z,1.00
2019-02-14T00:47:36.184Z,1.00
2019-02-14T00:50:06.057Z,1.00
2019-02-14T00:52:38.553Z,1.00
2019-02-14T00:57:41.498Z,1.00
2019-02-14T01:00:11.374Z,1.10
2019-02-14T01:02:44.080Z,1.10
2019-02-14T01:05:14.028Z,1.00
2019-02-14T01:07:46.625Z,1.00
2019-02-14T01:10:16.173Z,1.00
2019-02-14T01:12:51.539Z,0.90
2019-02-14T01:15:23.587Z,0.90
2019-02-14T01:17:53.152Z,1.60
2019-02-14T01:22:54.677Z,0.80
2019-02-14T01:25:24.464Z,0.80
2019-02-14T01:38:01.279Z,0.80
2019-02-14T01:40:31.106Z,0.80
2019-02-14T01:43:05.344Z,0.80
2019-02-14T01:48:15.132Z,0.80
2019-02-14T01:50:45.745Z,0.90
2019-02-14T01:55:44.439Z,0.80
2019-02-14T01:58:17.125Z,0.70
2019-02-14T02:00:46.655Z,0.60
2019-02-14T02:03:19.268Z,1.70
2019-02-14T02:08:23.004Z,0.60
2019-02-14T02:10:52.566Z,0.50
2019-02-14T02:15:52.380Z,0.20
2019-02-14T02:20:54.875Z,0.10
2019-02-14T02:23:28.536Z,0.00
2019-02-14T02:25:58.074Z,0.10
2019-02-14T02:28:31.464Z,0.00
2019-02-14T02:31:01.054Z,0.00
2019-02-14T02:33:33.763Z,0.00
2019-02-14T02:36:03.308Z,0.00
2019-02-14T02:38:38.210Z,-0.10
2019-02-14T02:41:08.031Z,0.00
2019-02-14T02:43:39.685Z,0.00
2019-02-14T02:46:09.261Z,-0.10
2019-02-14T02:48:41.890Z,0.00
2019-02-14T02:51:11.432Z,0.00
2019-02-14T02:56:14.025Z,0.00
2019-02-14T02:58:48.023Z,0.10
2019-02-14T03:01:17.546Z,0.10
2019-02-14T03:03:50.498Z,0.10
2019-02-14T03:06:20.361Z,0.20
2019-02-14T03:08:53.735Z,0.20
2019-02-14T03:11:23.392Z,0.20
2019-02-14T03:13:56.152Z,0.20
2019-02-14T03:19:06.785Z,0.20
2019-02-14T03:21:36.384Z,0.20
2019-02-14T03:24:06.157Z,0.20
2019-02-14T03:29:07.410Z,0.00
2019-02-14T03:31:36.961Z,0.10
2019-02-14T03:34:10.665Z,0.00
2019-02-14T03:36:40.209Z,0.10
2019-02-14T03:39:14.189Z,0.10
2019-02-14T03:41:43.976Z,0.00
2019-02-14T03:44:16.538Z,0.00
2019-02-14T03:46:46.087Z,0.30
2019-02-14T03:51:47.841Z,0.00
2019-02-14T03:56:50.358Z,-0.10
2019-02-14T03:59:24.053Z,0.00
2019-02-14T04:01:53.564Z,-0.10
2019-02-14T04:09:28.616Z,0.00
2019-02-14T04:11:58.139Z,0.00
2019-02-14T04:14:32.136Z,0.10
2019-02-14T04:17:01.678Z,0.10
2019-02-14T04:19:34.344Z,0.10
2019-02-14T04:22:04.208Z,0.10
2019-02-14T04:27:06.156Z,0.00
2019-02-14T04:34:43.469Z,-0.30
2019-02-14T04:37:13.014Z,-0.40
2019-02-14T04:39:45.697Z,0.20
2019-02-14T04:44:49.058Z,-0.50
2019-02-14T04:47:18.637Z,-0.50
2019-02-14T04:49:51.469Z,-0.50
2019-02-14T04:52:21.069Z,-0.50
2019-02-14T04:54:56.672Z,-0.50
2019-02-14T04:57:26.211Z,-0.40
2019-02-14T05:02:26.017Z,-0.20
2019-02-14T05:10:01.271Z,-0.10
2019-02-14T05:12:29.734Z,0.00
2019-02-14T05:14:59.552Z,0.00
2019-02-14T05:22:27.176Z,0.10
2019-02-14T05:24:56.733Z,0.10
2019-02-14T05:27:26.265Z,0.30
2019-02-14T05:32:26.121Z,1.40
2019-02-14T05:37:24.540Z,0.40
2019-02-14T05:42:25.106Z,0.20
2019-02-14T05:44:54.718Z,0.10
2019-02-14T05:52:28.408Z,0.00
2019-02-14T05:54:58.314Z,-0.10
2019-02-14T05:57:30.962Z,-0.20
2019-02-14T06:07:36.422Z,-0.30
2019-02-14T06:10:10.727Z,-0.30
2019-02-14T06:20:10.623Z,-0.90
2019-02-14T06:22:44.503Z,-0.20
2019-02-14T06:27:47.897Z,-0.30
2019-02-14T06:30:17.697Z,-0.40
2019-02-14T06:32:51.628Z,-0.60
2019-02-14T06:35:21.225Z,-0.50
2019-02-14T06:37:54.388Z,-0.40
2019-02-14T06:40:23.976Z,-0.30
2019-02-14T06:43:04.055Z,-0.20
2019-02-14T06:48:04.364Z,-0.20
2019-02-14T06:50:34.943Z,-0.20
2019-02-14T06:55:34.412Z,-0.20
2019-02-14T06:58:09.701Z,-0.20
2019-02-14T07:00:39.529Z,-0.20
2019-02-14T07:03:09.289Z,-0.90
2019-02-14T07:05:38.866Z,0.30
2019-02-14T07:08:13.414Z,-0.30
2019-02-14T07:10:42.994Z,-0.30
2019-02-14T07:15:44.548Z,-0.20
2019-02-14T07:18:21.950Z,0.00
2019-02-14T07:23:20.732Z,0.80
2019-02-14T07:25:50.671Z,-0.10
2019-02-14T07:28:23.288Z,-0.20
2019-02-14T07:30:52.851Z,-0.30
2019-02-14T07:33:28.012Z,-0.30
2019-02-14T07:38:27.467Z,-0.20
2019-02-14T07:40:57.380Z,-0.20
2019-02-14T07:43:30.828Z,-0.10
2019-02-14T07:46:00.385Z,0.10
2019-02-14T07:48:32.990Z,1.20
2019-02-14T07:51:02.798Z,3.00
2019-02-14T07:53:36.385Z,3.70
2019-02-14T07:56:05.957Z,4.10
2019-02-14T07:58:38.631Z,3.40
2019-02-14T08:01:08.227Z,4.00
2019-02-14T08:06:10.221Z,4.50
2019-02-14T08:08:51.084Z,4.80
2019-02-14T08:11:20.890Z,4.80
2019-02-14T08:13:50.488Z,5.60
2019-02-14T08:16:20.097Z,5.50
2019-02-14T08:18:49.704Z,5.50
2019-02-14T08:21:19.246Z,5.90
2019-02-14T08:23:53.225Z,6.40
2019-02-14T08:26:22.784Z,7.80
2019-02-14T08:28:55.573Z,8.00
2019-02-14T08:33:58.441Z,6.60
2019-02-14T08:36:28.281Z,5.90
2019-02-14T08:39:02.436Z,5.30
2019-02-14T08:44:06.298Z,6.00
2019-02-14T08:46:35.849Z,4.80
2019-02-14T08:54:12.990Z,4.10
2019-02-14T08:56:42.850Z,4.60
2019-02-14T08:59:15.157Z,4.70
2019-02-14T09:01:44.840Z,5.50
2019-02-14T09:04:17.502Z,4.80
2019-02-14T09:06:47.069Z,4.90
2019-02-14T09:09:20.089Z,5.20
2019-02-14T09:11:49.698Z,5.10
2019-02-14T09:14:22.520Z,5.20
2019-02-14T09:19:25.553Z,5.40
2019-02-14T09:21:55.122Z,5.50
2019-02-14T09:24:27.520Z,5.40
2019-02-14T09:26:57.084Z,5.20
2019-02-14T09:29:29.717Z,4.90
2019-02-14T09:31:59.259Z,4.80
2019-02-14T09:34:36.049Z,4.70
2019-02-14T09:39:41.017Z,5.80
2019-02-14T09:42:08.347Z,4.10
2019-02-14T09:44:38.248Z,5.00
2019-02-14T09:47:07.823Z,5.20
2019-02-14T09:49:42.672Z,5.40
2019-02-14T09:54:42.741Z,5.60
2019-02-14T09:59:45.960Z,5.60
2019-02-14T10:02:15.509Z,5.50
2019-02-14T10:07:16.998Z,5.80
2019-02-14T10:09:57.538Z,5.90
2019-02-14T10:12:27.350Z,6.10
2019-02-14T10:14:57.686Z,6.30
2019-02-14T10:17:27.258Z,6.60
2019-02-14T10:19:57.605Z,6.90
2019-02-14T10:22:27.170Z,7.10
2019-02-14T10:25:00.373Z,7.40
2019-02-14T10:27:29.919Z,7.50
2019-02-14T10:30:03.723Z,7.60
2019-02-14T10:32:33.586Z,8.10
2019-02-14T10:35:06.602Z,7.90
2019-02-14T10:37:36.191Z,7.90
2019-02-14T10:42:44.873Z,8.00
2019-02-14T10:45:16.307Z,8.10
2019-02-14T10:47:45.871Z,8.00
2019-02-14T10:50:23.130Z,8.10
2019-02-14T10:52:52.672Z,8.10
2019-02-14T10:55:22.524Z,7.80
2019-02-14T11:00:22.436Z,8.10
2019-02-14T11:05:27.753Z,8.30
2019-02-14T11:07:57.283Z,8.60
2019-02-14T11:10:27.130Z,9.60
2019-02-14T11:12:56.756Z,9.10
2019-02-14T11:15:29.410Z,9.10
2019-02-14T11:17:59.277Z,9.30
2019-02-14T11:20:31.764Z,9.50
2019-02-14T11:23:01.354Z,9.50
2019-02-14T11:25:34.529Z,9.50
2019-02-14T11:28:04.460Z,9.40
2019-02-14T11:30:37.316Z,9.50
2019-02-14T11:33:06.929Z,9.60
2019-02-14T11:35:40.525Z,9.60
2019-02-14T11:38:10.344Z,9.30
2019-02-14T11:40:42.615Z,9.30
2019-02-14T11:43:12.208Z,9.50
2019-02-14T11:45:48.922Z,9.10
2019-02-14T11:48:18.748Z,9.20
2019-02-14T11:50:48.666Z,9.20
2019-02-14T11:53:18.231Z,9.30
2019-02-14T11:55:53.301Z,9.40
2019-02-14T11:58:22.858Z,9.40
2019-02-14T12:00:54.525Z,9.40
2019-02-14T12:03:24.131Z,9.60
2019-02-14T12:05:58.648Z,9.80
2019-02-14T12:08:28.472Z,9.80
2019-02-14T12:11:01.082Z,9.90
2019-02-14T12:13:30.705Z,9.90
2019-02-14T12:16:04.160Z,9.90
2019-02-14T12:18:33.734Z,9.50
2019-02-14T12:21:08.967Z,10.20
2019-02-14T12:23:38.745Z,10.10
2019-02-14T12:26:15.190Z,10.30
2019-02-14T12:28:44.738Z,10.60
2019-02-14T12:31:14.701Z,10.80
2019-02-14T12:33:44.312Z,10.90
2019-02-14T12:36:18.256Z,11.00
2019-02-14T12:38:48.157Z,11.00
2019-02-14T12:41:19.578Z,11.20
2019-02-14T12:43:49.141Z,11.40
2019-02-14T12:46:24.814Z,11.40
2019-02-14T12:48:54.380Z,11.40
2019-02-14T12:51:24.324Z,11.40
2019-02-14T12:53:54.186Z,11.50
2019-02-14T12:56:26.355Z,11.50
2019-02-14T12:58:56.006Z,11.80
2019-02-14T13:01:30.165Z,11.70
2019-02-14T13:03:59.752Z,11.80
2019-02-14T13:06:32.969Z,11.90
2019-02-14T13:09:05.402Z,11.80
2019-02-14T13:11:35.023Z,11.80
2019-02-14T13:14:04.603Z,11.80
2019-02-14T13:16:44.327Z,11.90
2019-02-14T13:19:22.057Z,12.00
2019-02-14T13:21:53.122Z,12.00
2019-02-14T13:24:26.315Z,12.10
2019-02-14T13:26:56.110Z,12.10
2019-02-14T13:29:28.151Z,12.10
2019-02-14T13:31:57.981Z,12.20
2019-02-14T13:34:27.529Z,12.30
2019-02-14T13:37:01.686Z,12.40
2019-02-14T13:39:30.227Z,12.30
2019-02-14T13:41:59.644Z,12.20
2019-02-14T13:44:31.712Z,12.30
2019-02-14T13:47:27.231Z,12.30
2019-02-14T13:49:57.613Z,12.30
2019-02-14T13:52:27.194Z,12.30
2019-02-14T13:54:59.650Z,12.40
2019-02-14T13:57:29.565Z,12.50
2019-02-14T14:00:02.092Z,12.60
2019-02-14T14:02:31.653Z,12.70
2019-02-14T14:05:08.151Z,12.70
2019-02-14T14:07:40.627Z,12.90
2019-02-14T14:10:11.154Z,12.90
2019-02-14T14:12:42.232Z,13.00
2019-02-14T14:15:13.847Z,13.00
2019-02-14T14:20:15.433Z,12.90
2019-02-14T14:22:44.996Z,12.80
2019-02-14T14:25:24.086Z,12.70
2019-02-14T14:27:53.660Z,12.60
2019-02-14T14:30:23.889Z,12.60
2019-02-14T14:32:53.550Z,12.60
2019-02-14T14:35:23.362Z,12.70
2019-02-14T14:37:52.907Z,12.40
2019-02-14T14:40:32.178Z,11.70
2019-02-14T14:43:23.954Z,12.30
2019-02-14T14:46:11.021Z,12.30
2019-02-14T14:48:48.839Z,14.40
2019-02-14T14:51:18.459Z,12.20
2019-02-14T14:53:48.060Z,12.20
2019-02-14T14:56:18.033Z,12.00
2019-02-14T14:58:53.104Z,12.00
2019-02-14T15:01:24.403Z,12.80
2019-02-14T15:03:53.979Z,11.80
2019-02-14T15:06:25.366Z,11.70
2019-02-14T15:11:26.927Z,11.60
2019-02-14T15:13:56.891Z,11.50
2019-02-14T15:16:27.760Z,11.10
2019-02-14T15:18:57.349Z,11.50
2019-02-14T15:23:56.315Z,11.30
2019-02-14T15:28:55.177Z,11.30
2019-02-14T15:39:17.475Z,11.10
2019-02-14T15:41:47.177Z,11.00
2019-02-14T15:44:16.937Z,11.00
2019-02-14T15:49:16.120Z,11.30
2019-02-14T15:51:45.840Z,10.80
2019-02-14T15:54:15.941Z,10.70
2019-02-14T15:56:45.642Z,10.60
2019-02-14T15:59:24.363Z,10.50
2019-02-14T16:04:22.995Z,11.30
2019-02-14T16:09:24.025Z,10.40
2019-02-14T16:11:57.901Z,10.40
2019-02-14T16:14:27.565Z,10.30
2019-02-14T16:16:57.133Z,10.20
2019-02-14T16:19:27.033Z,10.10
2019-02-14T16:21:56.586Z,10.10
2019-02-14T16:26:55.713Z,10.00
2019-02-14T16:29:27.611Z,9.90
2019-02-14T16:31:57.401Z,10.60
2019-02-14T16:34:31.213Z,9.80
2019-02-14T16:37:00.745Z,9.60
2019-02-14T16:39:32.593Z,9.30
2019-02-14T16:42:02.172Z,9.20
2019-02-14T16:47:04.108Z,9.00
2019-02-14T16:49:44.036Z,9.10
2019-02-14T16:54:43.072Z,8.80
2019-02-14T16:59:44.272Z,8.50
2019-02-14T17:04:46.212Z,8.50
2019-02-14T17:09:48.889Z,8.50
2019-02-14T17:14:51.521Z,8.50
2019-02-14T17:19:57.560Z,8.40
2019-02-14T17:22:27.165Z,8.40
2019-02-14T17:25:02.217Z,8.30
2019-02-14T17:30:02.660Z,8.30
2019-02-14T17:40:08.254Z,8.40
2019-02-14T17:45:12.654Z,8.40
2019-02-14T17:50:14.527Z,8.60
2019-02-14T17:52:44.464Z,8.60
2019-02-14T17:55:20.737Z,9.30
2019-02-14T17:57:51.526Z,8.60
2019-02-14T18:00:21.160Z,8.70
2019-02-14T18:05:30.337Z,8.50
2019-02-14T18:08:00.046Z,8.50
2019-02-14T18:10:29.963Z,8.50
2019-02-14T18:15:28.685Z,8.40
2019-02-14T18:17:59.470Z,8.30
2019-02-14T18:23:00.184Z,8.20
2019-02-14T18:25:31.814Z,8.10
2019-02-14T18:28:01.523Z,8.00
2019-02-14T18:30:34.270Z,8.00
2019-02-14T18:38:15.720Z,7.70
2019-02-14T18:40:47.259Z,7.70
2019-02-14T18:43:17.625Z,7.70
2019-02-14T18:50:45.633Z,7.40
2019-02-14T18:53:15.323Z,7.30
2019-02-14T18:55:48.177Z,7.30
2019-02-14T18:58:26.144Z,7.20
2019-02-14T19:00:53.753Z,7.10
2019-02-14T19:03:23.949Z,7.00
2019-02-14T19:18:30.101Z,6.30
2019-02-14T19:21:05.930Z,6.30
2019-02-14T19:23:35.565Z,6.30
2019-02-14T19:26:08.025Z,6.30
2019-02-14T19:36:15.383Z,6.60
2019-02-14T19:38:45.318Z,6.60
2019-02-14T19:41:25.151Z,6.60
2019-02-14T19:43:48.634Z,6.60
2019-02-14T19:46:21.041Z,6.50
2019-02-14T19:48:50.680Z,6.50
2019-02-14T19:53:52.932Z,6.40
2019-02-14T19:56:24.670Z,6.50
2019-02-14T19:58:55.280Z,6.60
2019-02-14T20:01:29.109Z,7.40
2019-02-14T20:03:59.222Z,6.60
2019-02-14T20:09:05.056Z,6.60
2019-02-14T20:11:37.159Z,6.50
2019-02-14T20:14:05.961Z,6.50
2019-02-14T20:19:16.948Z,6.60
2019-02-14T20:24:16.074Z,6.60
2019-02-14T20:29:16.428Z,6.40
2019-02-14T20:31:49.402Z,6.30
2019-02-14T20:36:48.146Z,6.00
2019-02-14T20:39:21.077Z,6.00
2019-02-14T20:41:55.919Z,6.00
2019-02-14T20:46:55.041Z,6.70
2019-02-14T20:54:25.641Z,6.10
2019-02-14T20:57:00.491Z,6.00
2019-02-14T20:59:32.365Z,5.90
2019-02-14T21:02:03.751Z,5.50
2019-02-14T21:07:06.699Z,5.30
2019-02-14T21:09:36.649Z,5.40
2019-02-14T21:12:11.188Z,5.40
2019-02-14T21:17:13.297Z,5.30
2019-02-14T21:24:47.582Z,5.30
2019-02-14T21:27:21.011Z,5.30
2019-02-14T21:29:51.062Z,5.40
2019-02-14T21:32:20.785Z,5.50
2019-02-14T21:34:50.369Z,5.60
2019-02-14T21:39:52.050Z,5.70
2019-02-14T21:42:29.221Z,5.70
2019-02-14T21:52:31.858Z,3.90
2019-02-14T21:55:01.491Z,3.90
2019-02-14T22:02:39.719Z,4.60
2019-02-14T22:05:10.328Z,4.80
2019-02-14T22:12:42.765Z,4.90
2019-02-14T22:15:14.171Z,5.00
2019-02-14T22:17:43.779Z,4.80
2019-02-14T22:22:46.544Z,4.60
2019-02-14T22:27:49.856Z,4.30
2019-02-14T22:32:53.157Z,3.90
2019-02-14T22:35:22.730Z,3.90
2019-02-14T22:37:56.049Z,3.90
2019-02-14T22:40:25.944Z,3.80
2019-02-14T22:42:58.513Z,3.80
2019-02-14T22:48:02.080Z,3.90
2019-02-14T22:50:31.625Z,3.90
2019-02-14T22:55:33.980Z,3.90
2019-02-14T22:58:07.524Z,3.90
2019-02-14T23:00:44.803Z,3.00
2019-02-14T23:05:46.349Z,3.50
2019-02-14T23:08:16.211Z,3.50
2019-02-14T23:10:45.753Z,3.50
2019-02-14T23:13:17.594Z,4.50
2019-02-14T23:18:19.690Z,3.20
2019-02-14T23:23:23.061Z,3.00
2019-02-14T23:28:24.880Z,2.90
2019-02-14T23:30:54.539Z,2.90
2019-02-14T23:33:27.053Z,2.90
2019-02-14T23:35:56.856Z,2.90
2019-02-14T23:38:29.583Z,3.70
2019-02-14T23:40:59.108Z,2.80
2019-02-14T23:43:32.266Z,2.80
2019-02-14T23:46:01.886Z,2.90
2019-02-14T23:48:34.758Z,2.90
2019-02-14T23:51:04.561Z,2.80
2019-02-14T23:56:05.522Z,2.80
2019-02-14T23:58:40.576Z,2.90
